Time;durP1;ratioP1;P1;durP2;ratioP2;P2;SDS_P1;SDS_P2;PMS_P1;PMS_P2;Temp;Humidity;BMP_temperature;BMP_pressure;BME280_temperature;BME280_humidity;BME280_pressure;Samples;Min_cycle;Max_cycle;Signal;HPM_P1;HPM_P2
2022/03/22 00:00:37;;;;;;;34.30;17.02;;;;;;;;;;4991330;28;20055;-80
2022/03/22 00:03:04;;;;;;;31.65;15.68;;;;;;;;;;4976041;28;20072;-80
2022/03/22 00:05:32;;;;;;;37.13;16.67;;;;;;;;;;4996056;28;20107;-80
2022/03/22 00:08:00;;;;;;;35.15;16.50;;;;;;;;;;4988449;28;20908;-81
2022/03/22 00:10:28;;;;;;;34.75;16.27;;;;;;;;;;4996033;28;20050;-82
2022/03/22 00:12:55;;;;;;;40.05;17.80;;;;;;;;;;4995490;28;20043;-81
2022/03/22 00:15:21;;;;;;;36.75;16.60;;;;;;;;;;4994773;28;20047;-80
2022/03/22 00:18:08;;;;;;;37.58;17.52;;;;;;;;;;4992551;28;20652;-82
2022/03/22 00:20:35;;;;;;;34.35;16.40;;;;;;;;;;4994176;28;20572;-80
2022/03/22 00:23:01;;;;;;;38.63;18.05;;;;;;;;;;4994286;28;20047;-81
2022/03/22 00:25:28;;;;;;;36.38;18.08;;;;;;;;;;4995992;28;20050;-81
2022/03/22 00:27:55;;;;;;;39.65;17.90;;;;;;;;;;4994623;28;20592;-80
2022/03/22 00:30:22;;;;;;;37.25;18.10;;;;;;;;;;4994255;28;20087;-81
2022/03/22 00:32:53;;;;;;;41.10;18.73;;;;;;;;;;4993901;28;20051;-80
2022/03/22 00:35:20;;;;;;;;;;;;;;;;;;4995137;28;20129;-82
2022/03/22 00:37:46;;;;;;;41.78;17.67;;;;;;;;;;4994169;28;45870;-81
2022/03/22 00:40:17;;;;;;;40.25;17.90;;;;;;;;;;5014997;28;20129;-82
2022/03/22 00:42:46;;;;;;;36.17;18.25;;;;;;;;;;5011314;28;20065;-80
2022/03/22 00:45:13;;;;;;;40.20;19.13;;;;;;;;;;4993765;28;20066;-81
2022/03/22 00:47:42;;;;;;;37.42;18.17;;;;;;;;;;4993123;28;20897;-81
2022/03/22 00:50:08;;;;;;;39.10;18.33;;;;;;;;;;4992599;28;20813;-81
2022/03/22 00:52:36;;;;;;;42.17;19.40;;;;;;;;;;4990956;28;20059;-80
2022/03/22 00:55:05;;;;;;;41.30;19.23;;;;;;;;;;4992657;28;20130;-81
2022/03/22 00:57:33;;;;;;;46.50;18.95;;;;;;;;;;4993242;28;20109;-82
2022/03/22 01:00:06;;;;;;;46.05;19.55;;;;;;;;;;4991917;28;20129;-81
2022/03/22 01:02:34;;;;;;;45.05;18.60;;;;;;;;;;4992704;28;20159;-80
2022/03/22 01:05:02;;;;;;;41.25;19.52;;;;;;;;;;4991212;28;20099;-79
2022/03/22 01:07:29;;;;;;;40.70;18.92;;;;;;;;;;4984447;28;20047;-82
2022/03/22 01:09:55;;;;;;;42.53;20.58;;;;;;;;;;4994925;28;20051;-82
2022/03/22 01:12:22;;;;;;;44.72;20.70;;;;;;;;;;4995397;28;20062;-81
2022/03/22 01:14:49;;;;;;;46.15;20.35;;;;;;;;;;4989289;28;20059;-80
2022/03/22 01:17:16;;;;;;;45.58;20.67;;;;;;;;;;4999392;28;20066;-80
2022/03/22 01:19:42;;;;;;;43.80;20.88;;;;;;;;;;5002281;28;20509;-81
2022/03/22 01:22:10;;;;;;;47.58;22.13;;;;;;;;;;5015467;28;20039;-81
2022/03/22 01:24:36;;;;;;;45.40;20.80;;;;;;;;;;5014696;28;20042;-81
2022/03/22 01:27:02;;;;;;;47.25;21.77;;;;;;;;;;5005036;28;20682;-82
2022/03/22 01:29:29;;;;;;;47.45;21.50;;;;;;;;;;5005003;28;20035;-82
2022/03/22 01:31:55;;;;;;;42.85;20.77;;;;;;;;;;5005613;28;20046;-81
2022/03/22 01:34:22;;;;;;;40.35;19.30;;;;;;;;;;5006571;28;20526;-80
2022/03/22 01:36:49;;;;;;;43.22;19.55;;;;;;;;;;5017444;28;20059;-79
2022/03/22 01:39:15;;;;;;;47.83;19.80;;;;;;;;;;5006002;28;20162;-82
2022/03/22 01:41:42;;;;;;;37.92;18.88;;;;;;;;;;5003960;28;20075;-81
2022/03/22 01:44:08;;;;;;;38.85;18.52;;;;;;;;;;5000821;28;20070;-79
2022/03/22 01:46:35;;;;;;;42.88;20.58;;;;;;;;;;4998278;28;20059;-82
2022/03/22 01:49:03;;;;;;;42.80;19.98;;;;;;;;;;4999596;28;20047;-82
2022/03/22 01:51:33;;;;;;;40.58;20.42;;;;;;;;;;4998721;28;20074;-81
2022/03/22 01:53:59;;;;;;;43.60;20.10;;;;;;;;;;5000367;28;20098;-81
2022/03/22 01:56:26;;;;;;;46.00;19.67;;;;;;;;;;5000213;28;20070;-80
2022/03/22 01:58:55;;;;;;;41.75;19.83;;;;;;;;;;4994133;28;20059;-82
2022/03/22 02:06:54;;;;;;;42.78;18.90;;;;;;;;;;4994503;28;20047;-81
2022/03/22 02:09:20;;;;;;;38.60;19.08;;;;;;;;;;4990160;28;20077;-81
2022/03/22 02:11:47;;;;;;;39.58;18.42;;;;;;;;;;4997176;28;20054;-81
2022/03/22 02:14:42;;;;;;;42.88;19.77;;;;;;;;;;4997914;28;20051;-82
2022/03/22 02:17:12;;;;;;;38.70;17.92;;;;;;;;;;4982120;28;20051;-82
2022/03/22 02:19:39;;;;;;;38.58;17.52;;;;;;;;;;4996576;28;20054;-79
2022/03/22 02:22:06;;;;;;;37.95;17.52;;;;;;;;;;4998468;28;20084;-80
2022/03/22 02:24:33;;;;;;;38.63;17.25;;;;;;;;;;4998095;28;20813;-81
2022/03/22 02:26:59;;;;;;;37.45;17.25;;;;;;;;;;4999307;28;20058;-81
2022/03/22 02:29:25;;;;;;;37.67;17.67;;;;;;;;;;4998877;28;20663;-80
2022/03/22 02:31:53;;;;;;;38.72;18.40;;;;;;;;;;5000946;28;20572;-81
2022/03/22 02:34:19;;;;;;;35.92;16.77;;;;;;;;;;5000109;28;20054;-81
2022/03/22 02:36:46;;;;;;;37.63;17.52;;;;;;;;;;4999758;28;20057;-81
2022/03/22 02:39:12;;;;;;;34.83;16.63;;;;;;;;;;4998654;28;20075;-81
2022/03/22 02:41:39;;;;;;;34.20;16.95;;;;;;;;;;4995240;28;20050;-80
2022/03/22 02:44:05;;;;;;;42.78;17.10;;;;;;;;;;4994306;28;20149;-80
2022/03/22 02:46:32;;;;;;;36.80;17.42;;;;;;;;;;4996801;28;20066;-79
2022/03/22 02:48:58;;;;;;;35.80;16.73;;;;;;;;;;4996430;28;20134;-81
2022/03/22 02:51:26;;;;;;;36.30;18.20;;;;;;;;;;4993206;28;20051;-78
2022/03/22 02:53:52;;;;;;;39.40;17.50;;;;;;;;;;4996662;28;20058;-81
2022/03/22 02:56:19;;;;;;;39.10;17.35;;;;;;;;;;4998633;28;20146;-80
2022/03/22 02:58:46;;;;;;;40.67;19.13;;;;;;;;;;4996380;28;20050;-79
2022/03/22 03:01:12;;;;;;;47.30;19.05;;;;;;;;;;4998332;28;20058;-80
2022/03/22 03:03:39;;;;;;;40.17;17.98;;;;;;;;;;4996596;28;20055;-80
2022/03/22 03:06:06;;;;;;;42.15;18.85;;;;;;;;;;4996622;28;20788;-80
2022/03/22 03:08:32;;;;;;;41.67;18.58;;;;;;;;;;4978071;28;20061;-79
2022/03/22 03:10:59;;;;;;;40.92;17.60;;;;;;;;;;4988434;28;20055;-81
2022/03/22 03:13:25;;;;;;;39.53;18.80;;;;;;;;;;4995449;28;20055;-81
2022/03/22 03:15:52;;;;;;;40.47;17.90;;;;;;;;;;4994060;28;20047;-81
2022/03/22 03:18:18;;;;;;;43.60;18.73;;;;;;;;;;4995515;28;20559;-80
2022/03/22 03:20:45;;;;;;;36.67;17.45;;;;;;;;;;4995770;28;20054;-81
2022/03/22 03:23:11;;;;;;;41.78;18.15;;;;;;;;;;4995048;28;20074;-80
2022/03/22 03:25:37;;;;;;;39.05;18.00;;;;;;;;;;4998284;28;20059;-82
2022/03/22 03:28:04;;;;;;;37.35;18.38;;;;;;;;;;4997327;28;20928;-82
2022/03/22 03:30:30;;;;;;;45.63;18.05;;;;;;;;;;4995890;28;20039;-81
2022/03/22 03:32:57;;;;;;;33.15;17.17;;;;;;;;;;4994219;28;20122;-81
2022/03/22 03:35:23;;;;;;;38.53;17.02;;;;;;;;;;5005907;28;20051;-83
2022/03/22 03:37:49;;;;;;;36.60;16.15;;;;;;;;;;5015572;28;20046;-82
2022/03/22 03:40:16;;;;;;;46.30;18.20;;;;;;;;;;5012301;28;20061;-80
2022/03/22 03:42:45;;;;;;;43.30;18.13;;;;;;;;;;4984530;28;20137;-81
2022/03/22 03:47:57;;;;;;;39.72;18.20;;;;;;;;;;4995532;28;20074;-80
2022/03/22 03:50:24;;;;;;;39.60;18.98;;;;;;;;;;5001085;28;20039;-82
2022/03/22 03:52:50;;;;;;;41.35;19.23;;;;;;;;;;4994294;28;20066;-82
2022/03/22 03:55:16;;;;;;;46.42;20.67;;;;;;;;;;4994772;28;20529;-82
2022/03/22 03:57:44;;;;;;;44.60;20.88;;;;;;;;;;4993989;28;20058;-81
2022/03/22 04:00:11;;;;;;;43.70;20.88;;;;;;;;;;4992953;28;20803;-81
2022/03/22 04:02:37;;;;;;;45.85;19.77;;;;;;;;;;4993105;28;20051;-81
2022/03/22 04:05:04;;;;;;;44.72;20.63;;;;;;;;;;4993908;28;20144;-81
2022/03/22 04:07:31;;;;;;;49.83;22.08;;;;;;;;;;4991326;28;20059;-81
2022/03/22 04:09:57;;;;;;;49.85;20.80;;;;;;;;;;4991454;28;20047;-82
2022/03/22 04:12:23;;;;;;;44.53;19.90;;;;;;;;;;4993381;28;20109;-81
2022/03/22 04:14:51;;;;;;;45.25;20.92;;;;;;;;;;5006892;28;20138;-81
2022/03/22 04:17:18;;;;;;;40.38;18.98;;;;;;;;;;4993783;28;21385;-80
2022/03/22 04:19:45;;;;;;;43.38;19.40;;;;;;;;;;4992077;28;20517;-81
2022/03/22 04:22:33;;;;;;;44.80;20.73;;;;;;;;;;4993624;28;20147;-81
2022/03/22 04:24:59;;;;;;;46.25;19.80;;;;;;;;;;4995269;28;20101;-82
2022/03/22 04:33:06;;;;;;;41.55;19.15;;;;;;;;;;4986678;28;20085;-80
2022/03/22 04:35:33;;;;;;;42.88;18.38;;;;;;;;;;5004327;28;20050;-81
2022/03/22 04:37:59;;;;;;;38.38;17.85;;;;;;;;;;5025842;28;20098;-81
2022/03/22 04:40:26;;;;;;;37.47;18.25;;;;;;;;;;4992872;28;20133;-80
2022/03/22 04:42:52;;;;;;;37.20;17.92;;;;;;;;;;4994020;28;20046;-82
2022/03/22 04:45:19;;;;;;;35.55;17.55;;;;;;;;;;4995758;28;20050;-81
2022/03/22 04:47:45;;;;;;;40.65;19.20;;;;;;;;;;4997558;28;20055;-80
2022/03/22 04:50:12;;;;;;;38.75;18.23;;;;;;;;;;4979506;28;20039;-82
2022/03/22 04:58:08;;;;;;;40.15;18.35;;;;;;;;;;4997084;28;20058;-81
2022/03/22 05:00:35;;;;;;;39.25;18.35;;;;;;;;;;4997698;28;20115;-82
2022/03/22 05:03:02;;;;;;;38.45;17.92;;;;;;;;;;4996329;28;20058;-81
2022/03/22 05:08:14;;;;;;;39.63;18.48;;;;;;;;;;4999084;28;20043;-80
2022/03/22 05:10:40;;;;;;;38.83;17.83;;;;;;;;;;4996150;28;20051;-82
2022/03/22 05:13:07;;;;;;;32.33;16.67;;;;;;;;;;4993725;28;20050;-82
2022/03/22 05:15:33;;;;;;;38.55;18.27;;;;;;;;;;4992904;28;20114;-81
2022/03/22 05:18:01;;;;;;;38.53;18.00;;;;;;;;;;4994526;28;20050;-81
2022/03/22 05:20:28;;;;;;;39.17;18.55;;;;;;;;;;4992486;28;20054;-82
2022/03/22 05:22:54;;;;;;;45.53;19.27;;;;;;;;;;4987755;28;20058;-82
2022/03/22 05:25:21;;;;;;;41.65;18.75;;;;;;;;;;4993688;28;20065;-81
2022/03/22 05:27:50;;;;;;;39.47;18.88;;;;;;;;;;4993564;28;20078;-82
2022/03/22 05:30:19;;;;;;;44.70;19.73;;;;;;;;;;4995021;28;20063;-82
2022/03/22 05:32:45;;;;;;;40.13;19.40;;;;;;;;;;4994932;28;20059;-80
2022/03/22 05:35:12;;;;;;;42.45;19.55;;;;;;;;;;5002733;28;20062;-81
2022/03/22 05:37:41;;;;;;;37.88;19.17;;;;;;;;;;4994578;28;20055;-82
2022/03/22 05:40:10;;;;;;;36.75;18.55;;;;;;;;;;4986387;28;20059;-80
2022/03/22 05:42:39;;;;;;;43.10;19.98;;;;;;;;;;4975744;28;20059;-81
2022/03/22 05:45:08;;;;;;;38.17;18.77;;;;;;;;;;4976462;28;20126;-83
2022/03/22 05:47:36;;;;;;;41.80;18.88;;;;;;;;;;4981427;28;20059;-80
2022/03/22 05:50:02;;;;;;;43.33;19.50;;;;;;;;;;4995162;28;20121;-82
2022/03/22 05:52:29;;;;;;;39.40;18.75;;;;;;;;;;4994217;28;20042;-81
2022/03/22 05:54:55;;;;;;;41.50;19.05;;;;;;;;;;4996343;28;20054;-80
2022/03/22 05:57:24;;;;;;;39.30;18.33;;;;;;;;;;4989025;28;20085;-81
2022/03/22 05:59:51;;;;;;;38.88;18.60;;;;;;;;;;4994394;28;20137;-82
2022/03/22 06:02:17;;;;;;;40.63;19.23;;;;;;;;;;4994853;28;20055;-79
2022/03/22 06:04:44;;;;;;;42.33;19.25;;;;;;;;;;4992031;28;20102;-81
2022/03/22 06:10:37;;;;;;;42.85;19.23;;;;;;;;;;5066453;22;20050;-80
2022/03/22 06:13:03;;;;;;;45.05;20.38;;;;;;;;;;5010817;28;20555;-80
2022/03/22 06:15:30;;;;;;;43.75;19.52;;;;;;;;;;5013794;28;20074;-80
2022/03/22 06:17:59;;;;;;;45.08;20.27;;;;;;;;;;5014232;28;20054;-80
2022/03/22 06:20:26;;;;;;;41.97;20.42;;;;;;;;;;5005597;28;20058;-81
2022/03/22 06:22:54;;;;;;;38.50;19.42;;;;;;;;;;4997022;28;20058;-80
2022/03/22 06:25:21;;;;;;;45.40;20.65;;;;;;;;;;5007100;28;20105;-81
2022/03/22 06:27:48;;;;;;;43.28;20.73;;;;;;;;;;5002824;28;20059;-81
2022/03/22 06:30:15;;;;;;;45.67;21.05;;;;;;;;;;4994595;28;20102;-80
2022/03/22 06:32:42;;;;;;;43.55;20.55;;;;;;;;;;4995372;28;20517;-81
2022/03/22 06:35:13;;;;;;;43.28;19.45;;;;;;;;;;4999851;28;20461;-82
2022/03/22 06:37:40;;;;;;;50.17;22.95;;;;;;;;;;5005599;28;20090;-81
2022/03/22 06:40:07;;;;;;;43.53;21.33;;;;;;;;;;5006279;28;20117;-81
2022/03/22 06:42:33;;;;;;;50.67;20.15;;;;;;;;;;5011972;28;20563;-80
2022/03/22 06:45:00;;;;;;;43.70;21.85;;;;;;;;;;5001327;28;20043;-80
2022/03/22 06:47:27;;;;;;;45.92;20.92;;;;;;;;;;5019492;28;20065;-81
2022/03/22 06:49:53;;;;;;;47.85;20.85;;;;;;;;;;4998416;28;20075;-80
2022/03/22 06:52:20;;;;;;;51.42;22.73;;;;;;;;;;4997015;28;20055;-80
2022/03/22 06:54:46;;;;;;;45.22;21.17;;;;;;;;;;5000440;28;20358;-80
2022/03/22 06:57:12;;;;;;;46.47;21.65;;;;;;;;;;5002766;28;20067;-80
2022/03/22 06:59:39;;;;;;;45.45;21.15;;;;;;;;;;5017585;28;20070;-80
2022/03/22 07:02:05;;;;;;;44.33;20.98;;;;;;;;;;5003230;28;20069;-81
2022/03/22 07:04:32;;;;;;;46.40;20.20;;;;;;;;;;5011608;28;20522;-81
2022/03/22 07:06:58;;;;;;;43.13;20.05;;;;;;;;;;5011298;28;20057;-79
2022/03/22 07:09:25;;;;;;;48.97;22.73;;;;;;;;;;4998597;28;20059;-81
2022/03/22 07:11:52;;;;;;;44.55;21.00;;;;;;;;;;5004587;28;20097;-80
2022/03/22 07:14:19;;;;;;;43.47;21.52;;;;;;;;;;5009833;28;20050;-81
2022/03/22 07:16:48;;;;;;;44.95;20.77;;;;;;;;;;5006579;28;20061;-81
2022/03/22 07:19:15;;;;;;;43.70;21.08;;;;;;;;;;5001401;28;20062;-80
2022/03/22 07:21:42;;;;;;;44.63;21.85;;;;;;;;;;5008862;28;20054;-81
2022/03/22 07:24:09;;;;;;;46.03;21.27;;;;;;;;;;4995491;28;20758;-81
2022/03/22 07:26:35;;;;;;;51.75;21.83;;;;;;;;;;4998936;28;20047;-80
2022/03/22 07:29:07;;;;;;;45.60;22.17;;;;;;;;;;5009283;28;20054;-81
2022/03/22 07:31:41;;;;;;;39.22;19.02;;;;;;;;;;5001951;28;20514;-80
2022/03/22 07:34:12;;;;;;;45.13;20.85;;;;;;;;;;5012235;28;20142;-80
2022/03/22 07:36:41;;;;;;;41.97;20.42;;;;;;;;;;5031599;28;20073;-81
2022/03/22 07:39:17;;;;;;;42.42;19.67;;;;;;;;;;4998073;28;20042;-81
2022/03/22 07:41:43;;;;;;;41.50;20.63;;;;;;;;;;5011438;28;20054;-82
2022/03/22 07:44:12;;;;;;;44.60;22.45;;;;;;;;;;5005332;28;20128;-82
2022/03/22 07:46:39;;;;;;;47.63;21.20;;;;;;;;;;5014198;28;20054;-82
2022/03/22 07:54:37;;;;;;;43.00;20.15;;;;;;;;;;4998479;28;20093;-82
2022/03/22 07:57:07;;;;;;;39.22;21.77;;;;;;;;;;5012392;28;20120;-81
2022/03/22 07:59:34;;;;;;;44.78;22.48;;;;;;;;;;4994211;28;20061;-81
2022/03/22 08:02:00;;;;;;;43.03;20.27;;;;;;;;;;5002393;28;20517;-82
2022/03/22 08:04:26;;;;;;;44.58;22.13;;;;;;;;;;5001309;28;20054;-83
2022/03/22 08:06:53;;;;;;;39.80;21.80;;;;;;;;;;4997713;28;20059;-82
2022/03/22 08:09:19;;;;;;;43.92;21.10;;;;;;;;;;4998710;28;20054;-83
2022/03/22 08:11:46;;;;;;;39.92;20.80;;;;;;;;;;4997313;28;20099;-84
2022/03/22 08:14:13;;;;;;;64.30;27.45;;;;;;;;;;5007338;28;20059;-83
2022/03/22 08:16:40;;;;;;;54.22;24.95;;;;;;;;;;5003291;28;20193;-81
2022/03/22 08:19:07;;;;;;;46.30;25.73;;;;;;;;;;5010635;28;20042;-81
2022/03/22 08:21:34;;;;;;;44.63;23.02;;;;;;;;;;5016321;28;20517;-80
2022/03/22 08:24:00;;;;;;;43.80;23.67;;;;;;;;;;5011418;28;20067;-81
2022/03/22 08:26:27;;;;;;;44.58;21.70;;;;;;;;;;5007356;28;20548;-81
2022/03/22 08:29:03;;;;;;;46.83;24.10;;;;;;;;;;5017865;28;20078;-82
2022/03/22 08:31:30;;;;;;;38.95;20.80;;;;;;;;;;5016267;28;20058;-80
2022/03/22 08:33:57;;;;;;;51.42;24.55;;;;;;;;;;4997673;28;20055;-82
2022/03/22 08:36:23;;;;;;;35.47;18.25;;;;;;;;;;5004866;28;20047;-81
2022/03/22 08:38:51;;;;;;;41.88;20.48;;;;;;;;;;4998674;28;20051;-81
2022/03/22 08:41:17;;;;;;;33.90;19.00;;;;;;;;;;5000983;28;20096;-81
2022/03/22 08:43:44;;;;;;;33.63;18.38;;;;;;;;;;5012449;28;20046;-83
2022/03/22 08:46:11;;;;;;;34.20;19.20;;;;;;;;;;5005640;28;20153;-81
2022/03/22 08:48:37;;;;;;;32.40;16.60;;;;;;;;;;4995700;28;20127;-79
2022/03/22 08:51:05;;;;;;;29.65;17.45;;;;;;;;;;5006988;28;20054;-80
2022/03/22 08:53:32;;;;;;;30.15;17.02;;;;;;;;;;5017866;28;20058;-80
2022/03/22 08:56:03;;;;;;;28.83;16.73;;;;;;;;;;5025754;28;20042;-80
2022/03/22 08:58:29;;;;;;;32.38;17.17;;;;;;;;;;5006861;28;20039;-79
2022/03/22 09:00:56;;;;;;;28.00;15.90;;;;;;;;;;5021877;28;20051;-79
2022/03/22 09:03:24;;;;;;;32.45;17.55;;;;;;;;;;5007669;28;20086;-79
2022/03/22 09:06:10;;;;;;;30.77;17.05;;;;;;;;;;5026725;28;20078;-79
2022/03/22 09:08:38;;;;;;;31.48;17.75;;;;;;;;;;5008591;28;20046;-80
2022/03/22 09:11:05;;;;;;;30.73;17.00;;;;;;;;;;5021302;28;20047;-79
2022/03/22 09:13:37;;;;;;;32.35;16.35;;;;;;;;;;5009960;28;20042;-80
2022/03/22 09:16:05;;;;;;;30.95;17.40;;;;;;;;;;4999339;28;20055;-79
2022/03/22 09:18:31;;;;;;;30.08;16.42;;;;;;;;;;5001620;28;20035;-79
2022/03/22 09:20:58;;;;;;;28.65;17.13;;;;;;;;;;5016866;28;20078;-78
2022/03/22 09:23:25;;;;;;;29.63;17.15;;;;;;;;;;5021091;28;20059;-79
2022/03/22 09:25:53;;;;;;;30.40;17.58;;;;;;;;;;5005971;28;20043;-80
2022/03/22 09:28:19;;;;;;;30.08;16.48;;;;;;;;;;5010980;28;20063;-80
2022/03/22 09:30:48;;;;;;;29.85;16.23;;;;;;;;;;5004591;28;20524;-80
2022/03/22 09:33:15;;;;;;;30.38;17.38;;;;;;;;;;5009804;28;20583;-80
2022/03/22 09:35:41;;;;;;;27.95;16.38;;;;;;;;;;5009895;28;20117;-80
2022/03/22 09:38:14;;;;;;;29.70;17.05;;;;;;;;;;4995347;28;20054;-80
2022/03/22 09:40:40;;;;;;;25.40;15.18;;;;;;;;;;4996203;28;20066;-81
2022/03/22 09:43:08;;;;;;;27.63;16.85;;;;;;;;;;5010439;28;20058;-81
2022/03/22 09:45:34;;;;;;;32.58;17.27;;;;;;;;;;5005682;28;20050;-81
2022/03/22 09:48:04;;;;;;;31.35;18.15;;;;;;;;;;5013121;28;20876;-80
2022/03/22 09:53:17;;;;;;;30.45;18.60;;;;;;;;;;5005400;28;20494;-80
2022/03/22 09:55:43;;;;;;;32.35;17.95;;;;;;;;;;5000969;28;20051;-82
2022/03/22 09:58:10;;;;;;;32.50;17.20;;;;;;;;;;4998170;28;20065;-81
2022/03/22 10:00:38;;;;;;;32.65;17.83;;;;;;;;;;5001198;28;20058;-80
2022/03/22 10:03:07;;;;;;;29.67;16.92;;;;;;;;;;4998509;28;20071;-80
2022/03/22 10:05:34;;;;;;;30.73;18.02;;;;;;;;;;5006296;28;20053;-81
2022/03/22 10:08:05;;;;;;;28.25;17.38;;;;;;;;;;4992887;28;20058;-81
2022/03/22 10:10:31;;;;;;;32.67;17.58;;;;;;;;;;4991265;28;20058;-81
2022/03/22 10:13:04;;;;;;;29.88;17.35;;;;;;;;;;4995886;28;20054;-79
2022/03/22 10:15:32;;;;;;;28.52;17.50;;;;;;;;;;5004453;28;20065;-81
2022/03/22 10:18:06;;;;;;;31.58;17.80;;;;;;;;;;4999459;28;20054;-81
2022/03/22 10:20:36;;;;;;;27.00;17.67;;;;;;;;;;4997078;28;20058;-81
2022/03/22 10:23:05;;;;;;;33.85;18.73;;;;;;;;;;5001229;28;20403;-81
2022/03/22 10:25:38;;;;;;;31.02;17.83;;;;;;;;;;4994533;28;20524;-81
2022/03/22 10:28:05;;;;;;;29.27;18.05;;;;;;;;;;5012483;28;20050;-80
2022/03/22 10:30:32;;;;;;;29.38;18.17;;;;;;;;;;5005938;28;20105;-81
2022/03/22 10:33:01;;;;;;;30.63;19.45;;;;;;;;;;4991581;28;20063;-81
2022/03/22 10:35:29;;;;;;;35.05;18.98;;;;;;;;;;4999039;28;20059;-81
2022/03/22 10:38:09;;;;;;;32.22;19.33;;;;;;;;;;5006885;28;20055;-80
2022/03/22 10:40:40;;;;;;;32.33;19.17;;;;;;;;;;5012902;28;20518;-80
2022/03/22 10:43:07;;;;;;;31.63;19.05;;;;;;;;;;5005245;28;20097;-81
2022/03/22 10:45:53;;;;;;;28.38;18.42;;;;;;;;;;4999083;28;20054;-82
2022/03/22 10:48:26;;;;;;;28.98;18.20;;;;;;;;;;4999885;28;20058;-81
2022/03/22 10:50:53;;;;;;;27.52;17.65;;;;;;;;;;4998194;28;20062;-82
2022/03/22 10:53:20;;;;;;;33.47;18.45;;;;;;;;;;5000402;28;20054;-81
2022/03/22 10:55:47;;;;;;;31.63;18.65;;;;;;;;;;5005586;28;20121;-82
2022/03/22 10:58:14;;;;;;;26.38;17.95;;;;;;;;;;4995552;28;20066;-83
2022/03/22 11:00:42;;;;;;;26.52;17.60;;;;;;;;;;4992568;28;20501;-81
2022/03/22 11:03:09;;;;;;;30.98;18.75;;;;;;;;;;5006619;28;20059;-82
2022/03/22 11:05:36;;;;;;;27.60;17.55;;;;;;;;;;5002991;28;20141;-83
2022/03/22 11:08:03;;;;;;;29.50;17.75;;;;;;;;;;4995329;28;20062;-83
2022/03/22 11:10:29;;;;;;;30.40;17.38;;;;;;;;;;5006223;28;20074;-83
2022/03/22 11:12:59;;;;;;;31.55;17.30;;;;;;;;;;5003092;28;20074;-83
2022/03/22 11:15:27;;;;;;;27.50;17.38;;;;;;;;;;4999148;28;20046;-83
2022/03/22 11:17:55;;;;;;;30.00;18.20;;;;;;;;;;4990475;28;20105;-84
2022/03/22 11:20:25;;;;;;;26.63;16.88;;;;;;;;;;5001035;28;20108;-84
2022/03/22 11:22:54;;;;;;;26.83;17.33;;;;;;;;;;4990673;28;20055;-82
2022/03/22 11:25:28;;;;;;;25.98;16.85;;;;;;;;;;4996571;28;20054;-82
2022/03/22 11:27:59;;;;;;;29.80;17.40;;;;;;;;;;4995398;28;20085;-82
2022/03/22 11:30:27;;;;;;;30.42;17.60;;;;;;;;;;5001534;28;20490;-82
2022/03/22 11:35:50;;;;;;;29.60;15.77;;;;;;;;;;5010926;28;20501;-81
2022/03/22 11:38:35;;;;;;;24.90;14.70;;;;;;;;;;4996937;28;20058;-82
2022/03/22 11:43:47;;;;;;;27.45;14.27;;;;;;;;;;5000000;28;20086;-83
2022/03/22 11:46:13;;;;;;;21.83;13.00;;;;;;;;;;4996301;28;20050;-81
2022/03/22 11:48:40;;;;;;;24.17;13.95;;;;;;;;;;4997295;28;20050;-80
2022/03/22 11:51:07;;;;;;;23.02;14.05;;;;;;;;;;4998600;28;20065;-80
2022/03/22 11:53:42;;;;;;;23.27;13.18;;;;;;;;;;5012670;28;20782;-80
2022/03/22 11:56:09;;;;;;;21.60;12.30;;;;;;;;;;4999516;28;20066;-80
2022/03/22 11:58:36;;;;;;;21.35;12.98;;;;;;;;;;5009788;28;20070;-81
2022/03/22 12:01:22;;;;;;;25.17;11.73;;;;;;;;;;5004478;28;20054;-80
2022/03/22 12:03:53;;;;;;;20.83;11.98;;;;;;;;;;5010545;28;20506;-81
2022/03/22 12:06:21;;;;;;;21.77;12.80;;;;;;;;;;5009137;28;20110;-80
2022/03/22 12:08:55;;;;;;;24.33;12.65;;;;;;;;;;4998521;28;20086;-80
2022/03/22 12:11:22;;;;;;;19.85;11.55;;;;;;;;;;5003568;28;20055;-81
2022/03/22 12:13:51;;;;;;;20.70;12.48;;;;;;;;;;5012209;28;20068;-81
2022/03/22 12:16:25;;;;;;;24.33;12.65;;;;;;;;;;5003406;28;20042;-81
2022/03/22 12:18:51;;;;;;;20.88;11.60;;;;;;;;;;5003241;28;20165;-81
2022/03/22 12:21:18;;;;;;;23.70;12.65;;;;;;;;;;5010198;28;20054;-81
2022/03/22 12:23:46;;;;;;;22.95;11.98;;;;;;;;;;5000336;28;20869;-81
2022/03/22 12:26:12;;;;;;;23.85;12.18;;;;;;;;;;5006461;28;20050;-81
2022/03/22 12:28:49;;;;;;;22.60;13.00;;;;;;;;;;5001163;28;20058;-81
2022/03/22 12:31:20;;;;;;;25.77;13.38;;;;;;;;;;5023933;28;20743;-82
2022/03/22 12:33:51;;;;;;;20.77;12.77;;;;;;;;;;4999060;28;20058;-82
2022/03/22 12:36:31;;;;;;;24.40;13.75;;;;;;;;;;4987812;28;20057;-81
2022/03/22 12:38:58;;;;;;;24.05;13.27;;;;;;;;;;4998928;28;20856;-82
2022/03/22 12:41:25;;;;;;;27.80;14.45;;;;;;;;;;4999374;28;20055;-82
2022/03/22 12:43:51;;;;;;;26.33;13.82;;;;;;;;;;4993438;28;20063;-84
2022/03/22 12:46:18;;;;;;;28.45;14.40;;;;;;;;;;4990789;28;20522;-81
2022/03/22 12:48:50;;;;;;;23.52;13.25;;;;;;;;;;4989805;28;20063;-82
2022/03/22 12:51:17;;;;;;;22.25;13.05;;;;;;;;;;5004949;28;20050;-81
2022/03/22 12:53:44;;;;;;;23.50;12.68;;;;;;;;;;4995505;28;20485;-82
2022/03/22 12:56:15;;;;;;;22.13;12.68;;;;;;;;;;5003064;28;20054;-83
2022/03/22 12:58:41;;;;;;;23.02;12.93;;;;;;;;;;4997696;28;20062;-83
2022/03/22 13:01:09;;;;;;;24.35;13.35;;;;;;;;;;4989996;28;20058;-80
2022/03/22 13:03:36;;;;;;;22.13;12.77;;;;;;;;;;4993199;28;20065;-82
2022/03/22 13:06:05;;;;;;;17.70;10.27;;;;;;;;;;5001134;28;20065;-82
2022/03/22 13:11:27;;;;;;;20.85;10.88;;;;;;;;;;5001233;28;20054;-82
2022/03/22 13:16:39;;;;;;;20.42;11.25;;;;;;;;;;5001811;28;20059;-82
2022/03/22 13:19:11;;;;;;;19.45;10.55;;;;;;;;;;5002067;28;20055;-82
2022/03/22 13:21:39;;;;;;;20.20;10.98;;;;;;;;;;4993819;28;20053;-81
2022/03/22 13:24:11;;;;;;;19.90;10.88;;;;;;;;;;5000793;28;20047;-81
2022/03/22 13:26:39;;;;;;;20.17;11.38;;;;;;;;;;4998943;28;20117;-80
2022/03/22 13:29:10;;;;;;;20.95;12.35;;;;;;;;;;4995005;28;20059;-81
2022/03/22 13:31:40;;;;;;;22.58;12.57;;;;;;;;;;4997349;28;20059;-82
2022/03/22 13:34:06;;;;;;;19.73;11.52;;;;;;;;;;4998557;28;20510;-81
2022/03/22 13:36:32;;;;;;;19.58;12.10;;;;;;;;;;5005498;28;20157;-82
2022/03/22 13:39:03;;;;;;;23.00;12.65;;;;;;;;;;5017834;28;20062;-82
2022/03/22 13:41:30;;;;;;;18.38;11.18;;;;;;;;;;4999703;28;20031;-82
2022/03/22 13:43:56;;;;;;;22.30;11.82;;;;;;;;;;5005107;28;20062;-81
2022/03/22 13:46:23;;;;;;;20.10;11.77;;;;;;;;;;4994326;28;20498;-82
2022/03/22 13:48:53;;;;;;;23.80;13.02;;;;;;;;;;5007627;28;20506;-81
2022/03/22 13:51:20;;;;;;;25.13;12.27;;;;;;;;;;5007977;28;20616;-81
2022/03/22 13:53:47;;;;;;;21.27;13.10;;;;;;;;;;5016179;28;20920;-80
2022/03/22 13:56:14;;;;;;;25.15;13.18;;;;;;;;;;5003836;28;20062;-81
2022/03/22 13:58:41;;;;;;;21.42;12.57;;;;;;;;;;4997856;28;20054;-80
2022/03/22 14:01:13;;;;;;;22.27;12.60;;;;;;;;;;5000888;28;20039;-83
2022/03/22 14:03:40;;;;;;;24.38;13.20;;;;;;;;;;5006577;28;20773;-82
2022/03/22 14:06:07;;;;;;;24.08;13.07;;;;;;;;;;4996979;28;20128;-81
2022/03/22 14:08:34;;;;;;;23.20;13.38;;;;;;;;;;4995249;28;20065;-82
2022/03/22 14:11:00;;;;;;;24.77;13.05;;;;;;;;;;5000621;28;20069;-82
2022/03/22 14:13:28;;;;;;;25.63;13.63;;;;;;;;;;4995309;28;20058;-82
2022/03/22 14:15:55;;;;;;;25.20;12.60;;;;;;;;;;4998060;28;20047;-82
2022/03/22 14:18:22;;;;;;;25.35;13.15;;;;;;;;;;4999204;28;20051;-81
2022/03/22 14:20:50;;;;;;;24.55;13.35;;;;;;;;;;4993363;28;20897;-82
2022/03/22 14:23:17;;;;;;;21.38;12.10;;;;;;;;;;4992644;28;20498;-82
2022/03/22 14:25:48;;;;;;;24.17;11.98;;;;;;;;;;5009340;28;20514;-80
2022/03/22 14:28:14;;;;;;;;;;;;;;;;;;4994620;28;20039;-82
2022/03/22 14:30:41;;;;;;;22.33;11.73;;;;;;;;;;4997004;28;41411;-82
2022/03/22 14:33:09;;;;;;;21.25;12.30;;;;;;;;;;4996573;28;20055;-82
2022/03/22 14:35:49;;;;;;;21.67;12.43;;;;;;;;;;5009210;28;20473;-82
2022/03/22 14:38:16;;;;;;;21.42;12.52;;;;;;;;;;5008008;28;20054;-82
2022/03/22 14:40:43;;;;;;;18.50;11.48;;;;;;;;;;5004103;28;20601;-81
2022/03/22 14:43:10;;;;;;;21.02;12.13;;;;;;;;;;4995115;28;20043;-82
2022/03/22 14:45:38;;;;;;;32.65;13.90;;;;;;;;;;5005401;28;20051;-83
2022/03/22 14:48:05;;;;;;;22.95;13.15;;;;;;;;;;5004707;28;20057;-83
2022/03/22 14:50:31;;;;;;;23.90;13.10;;;;;;;;;;5003912;28;20061;-83
2022/03/22 14:55:43;;;;;;;25.10;12.40;;;;;;;;;;5001481;28;20607;-83
2022/03/22 15:00:56;;;;;;;24.05;12.38;;;;;;;;;;4998633;28;20098;-82
2022/03/22 15:03:27;;;;;;;23.88;12.15;;;;;;;;;;4997513;28;20055;-82
2022/03/22 15:05:59;;;;;;;21.05;12.02;;;;;;;;;;4996749;28;20058;-82
2022/03/22 15:08:27;;;;;;;21.55;11.98;;;;;;;;;;5003735;28;20038;-83
2022/03/22 15:10:54;;;;;;;24.80;11.23;;;;;;;;;;4992662;28;20057;-85
2022/03/22 15:13:20;;;;;;;20.10;11.77;;;;;;;;;;4998562;28;20061;-84